createdAt,value
2023-01-02T00:01:57.729Z,100888.31
2023-01-02T00:07:01.166Z,100883.53
2023-01-02T00:12:04.002Z,100878.66
2023-01-02T00:17:08.064Z,100861.22
2023-01-02T00:22:10.835Z,100856.03
2023-01-02T00:27:13.580Z,100845.25
2023-01-02T00:32:17.663Z,100832.59
2023-01-02T00:37:20.435Z,100821.41
2023-01-02T00:42:23.274Z,100805.16
2023-01-02T00:47:27.371Z,100779.28
2023-01-02T00:52:30.107Z,100764.53
2023-01-02T00:57:32.898Z,100750.69
2023-01-02T01:02:37.038Z,100759.00
2023-01-02T01:07:39.942Z,100745.31
2023-01-02T01:12:42.768Z,100735.13
2023-01-02T01:17:46.936Z,100727.88
2023-01-02T01:22:49.720Z,100728.38
2023-01-02T01:27:53.979Z,100733.44
2023-01-02T01:32:59.163Z,100727.19
2023-01-02T01:38:01.897Z,100717.44
2023-01-02T01:43:04.693Z,100699.78
2023-01-02T01:48:14.261Z,100697.09
2023-01-02T01:53:19.889Z,100694.00
2023-01-02T01:58:25.497Z,100689.94
2023-01-02T02:03:31.963Z,100679.00
2023-01-02T02:08:40.716Z,100669.91
2023-01-02T02:13:43.703Z,100666.06
2023-01-02T02:19:09.735Z,100659.50
2023-01-02T02:24:37.325Z,100637.78
2023-01-02T02:30:09.248Z,100628.63
2023-01-02T02:35:20.381Z,100634.09
2023-01-02T02:40:36.788Z,100621.34
2023-01-02T02:45:49.770Z,100621.97
2023-01-02T02:50:59.985Z,100604.34
2023-01-02T02:56:06.945Z,100600.84
2023-01-02T03:01:15.753Z,100589.63
2023-01-02T03:06:39.829Z,100586.72
2023-01-02T03:11:49.909Z,100592.28
2023-01-02T03:17:01.848Z,100571.09
2023-01-02T03:22:13.476Z,100564.91
2023-01-02T03:27:21.631Z,100572.06
2023-01-02T03:32:30.024Z,100569.44
2023-01-02T03:37:35.015Z,100581.31
2023-01-02T03:42:43.633Z,100573.97
2023-01-02T03:47:56.888Z,100560.53
2023-01-02T03:53:00.153Z,100561.28
2023-01-02T03:58:10.382Z,100551.38
2023-01-02T04:03:21.943Z,100540.91
2023-01-02T04:08:30.103Z,100539.75
2023-01-02T04:13:36.519Z,100531.34
2023-01-02T04:18:46.779Z,100529.00
2023-01-02T04:23:54.937Z,100528.38
2023-01-02T04:28:57.813Z,100531.88
2023-01-02T04:34:03.444Z,100537.25
2023-01-02T04:39:06.385Z,100534.81
2023-01-02T04:44:09.186Z,100535.16
2023-01-02T04:49:13.521Z,100535.34
2023-01-02T04:54:16.274Z,100532.03
2023-01-02T04:59:19.026Z,100537.94
2023-01-02T05:04:23.301Z,100532.38
2023-01-02T05:09:26.175Z,100529.59
2023-01-02T05:14:31.277Z,100528.69
2023-01-02T05:19:35.406Z,100535.78
2023-01-02T05:24:38.184Z,100534.00
2023-01-02T05:29:40.973Z,100533.81
2023-01-02T05:34:45.141Z,100523.88
2023-01-02T05:39:47.901Z,100538.91
2023-01-02T05:44:51.218Z,100510.56
2023-01-02T05:49:55.330Z,100530.53
2023-01-02T05:54:58.145Z,100516.31
2023-01-02T06:00:01.916Z,100517.75
2023-01-02T06:05:07.129Z,100506.09
2023-01-02T06:10:10.413Z,100512.09
2023-01-02T06:15:13.159Z,100514.81
2023-01-02T06:20:17.371Z,100515.50
2023-01-02T06:25:20.316Z,100521.41
2023-01-02T06:30:23.036Z,100527.78
2023-01-02T06:35:27.498Z,100536.00
2023-01-02T06:40:30.386Z,100528.00
2023-01-02T06:45:33.274Z,100531.69
2023-01-02T06:50:37.523Z,100521.84
2023-01-02T06:55:40.539Z,100528.66
2023-01-02T07:00:43.357Z,100523.28
2023-01-02T07:05:48.645Z,100526.97
2023-01-02T07:10:53.151Z,100535.44
2023-01-02T07:15:56.087Z,100520.97
2023-01-02T07:21:00.627Z,100531.25
2023-01-02T07:26:06.364Z,100530.16
2023-01-02T07:31:12.782Z,100538.03
2023-01-02T07:36:20.885Z,100533.84
2023-01-02T07:41:25.603Z,100530.25
2023-01-02T07:46:28.469Z,100535.88
2023-01-02T07:51:34.590Z,100534.09
2023-01-02T07:56:37.358Z,100537.66
2023-01-02T08:01:40.255Z,100526.66
2023-01-02T08:06:44.450Z,100539.97
2023-01-02T08:11:47.267Z,100533.34
2023-01-02T08:16:49.997Z,100537.56
2023-01-02T08:21:54.126Z,100541.38
2023-01-02T08:26:56.868Z,100551.00
2023-01-02T08:32:00.305Z,100552.38
2023-01-02T08:37:04.923Z,100565.38
2023-01-02T08:42:07.914Z,100556.25
2023-01-02T08:47:11.122Z,100569.69
2023-01-02T08:52:15.235Z,100561.34
2023-01-02T08:57:18.004Z,100569.47
2023-01-02T09:02:20.904Z,100568.53
2023-01-02T09:07:25.315Z,100579.97
2023-01-02T09:12:28.966Z,100566.47
2023-01-02T09:17:31.811Z,100571.16
2023-01-02T09:22:35.996Z,100559.41
2023-01-02T09:27:38.756Z,100556.53
2023-01-02T09:32:41.512Z,100565.53
2023-01-02T09:37:45.859Z,100576.03
2023-01-02T09:42:51.299Z,100563.13
2023-01-02T09:47:57.025Z,100571.81
2023-01-02T09:53:01.869Z,100578.72
2023-01-02T09:58:17.102Z,100577.09
2023-01-02T10:03:28.796Z,100572.59
2023-01-02T10:08:42.908Z,100585.28
2023-01-02T10:19:24.698Z,100589.44
2023-01-02T10:24:41.206Z,100599.75
2023-01-02T10:29:51.292Z,100594.56
2023-01-02T10:35:03.160Z,100592.09
2023-01-02T10:40:08.158Z,100590.44
2023-01-02T10:45:15.687Z,100599.72
2023-01-02T10:50:21.934Z,100600.63
2023-01-02T10:55:34.881Z,100589.41
2023-01-02T11:00:37.941Z,100594.38
2023-01-02T11:05:46.406Z,100600.19
2023-01-02T11:10:51.611Z,100612.94
2023-01-02T11:15:58.261Z,100619.13
2023-01-02T11:21:04.941Z,100639.47
2023-01-02T11:26:14.539Z,100672.97
2023-01-02T11:31:22.631Z,100684.69
2023-01-02T11:36:27.615Z,100717.34
2023-01-02T11:41:47.245Z,100754.50
2023-01-02T11:46:51.844Z,100762.09
2023-01-02T11:51:57.461Z,100752.19
2023-01-02T11:57:01.877Z,100771.91
2023-01-02T12:02:15.463Z,100803.66
2023-01-02T12:07:43.198Z,100818.50
2023-01-02T12:13:04.070Z,100837.19
2023-01-02T12:18:22.427Z,100853.19
2023-01-02T12:23:37.808Z,100880.72
2023-01-02T12:29:05.370Z,100874.53
2023-01-02T12:34:23.333Z,100881.25
2023-01-02T12:39:54.146Z,100874.84
2023-01-02T12:44:59.673Z,100882.19
2023-01-02T12:50:24.440Z,100902.50
2023-01-02T12:55:45.228Z,100912.41
2023-01-02T13:00:59.689Z,100957.88
2023-01-02T13:06:43.312Z,100949.16
2023-01-02T13:11:38.129Z,100966.03
2023-01-02T13:16:46.441Z,100987.53
2023-01-02T13:21:51.408Z,101001.97
2023-01-02T13:26:57.291Z,101009.94
2023-01-02T13:32:01.628Z,101022.41
2023-01-02T13:37:09.047Z,101015.00
2023-01-02T13:42:40.278Z,101030.44
2023-01-02T13:47:52.519Z,101015.00
2023-01-02T13:53:02.427Z,101023.63
2023-01-02T13:58:37.533Z,101041.03
2023-01-02T14:03:41.726Z,101052.06
2023-01-02T14:09:10.458Z,101062.38
2023-01-02T14:14:19.562Z,101060.44
2023-01-02T14:19:26.848Z,101066.66
2023-01-02T14:24:33.751Z,101079.91
2023-01-02T14:29:50.611Z,101089.34
2023-01-02T14:34:59.061Z,101094.75
2023-01-02T14:40:13.947Z,101099.28
2023-01-02T14:45:20.199Z,101126.88
2023-01-02T14:50:29.387Z,101125.34
2023-01-02T14:55:42.628Z,101134.09
2023-01-02T15:00:48.613Z,101137.19
2023-01-02T15:06:00.417Z,101134.31
2023-01-02T15:11:19.068Z,101139.44
2023-01-02T15:16:24.780Z,101158.03
2023-01-02T15:21:31.554Z,101156.59
2023-01-02T15:26:35.471Z,101160.53
2023-01-02T15:31:41.827Z,101166.28
2023-01-02T15:36:46.350Z,101186.56
2023-01-02T15:42:20.619Z,101202.78
2023-01-02T15:47:28.218Z,101209.75
2023-01-02T15:52:33.643Z,101200.09
2023-01-02T15:57:47.502Z,101187.09
2023-01-02T16:03:17.490Z,101204.84
2023-01-02T16:08:24.998Z,101192.56
2023-01-02T16:13:49.357Z,101207.38
2023-01-02T16:18:59.828Z,101209.56
2023-01-02T16:24:04.538Z,101209.03
2023-01-02T16:29:14.801Z,101218.63
2023-01-02T16:34:31.560Z,101241.31
2023-01-02T16:39:45.463Z,101240.66
2023-01-02T16:44:55.327Z,101252.13
2023-01-02T16:49:58.124Z,101248.78
2023-01-02T16:55:02.310Z,101247.59
2023-01-02T17:00:06.284Z,101269.47
2023-01-02T17:05:22.048Z,101262.56
2023-01-02T17:10:28.912Z,101265.09
2023-01-02T17:15:45.860Z,101251.25
2023-01-02T17:20:56.108Z,101264.22
2023-01-02T17:26:02.930Z,101274.69
2023-01-02T17:31:06.417Z,101275.94
2023-01-02T17:36:09.770Z,101287.16
2023-01-02T17:41:15.411Z,101290.44
2023-01-02T17:46:58.108Z,101290.19
2023-01-02T17:51:41.228Z,101297.63
2023-01-02T17:56:45.477Z,101310.00
2023-01-02T18:01:49.161Z,101308.97
2023-01-02T18:06:52.127Z,101311.69
2023-01-02T18:11:56.481Z,101319.97
2023-01-02T18:17:00.776Z,101326.41
2023-01-02T18:22:03.812Z,101334.16
2023-01-02T18:27:20.165Z,101334.66
2023-01-02T18:32:28.714Z,101327.84
2023-01-02T18:37:31.501Z,101349.03
2023-01-02T18:42:35.871Z,101348.88
2023-01-02T18:47:42.723Z,101349.03
2023-01-02T18:52:45.727Z,101361.91
2023-01-02T18:57:59.741Z,101354.56
2023-01-02T19:03:05.886Z,101379.84
2023-01-02T19:08:19.948Z,101381.00
2023-01-02T19:13:28.261Z,101387.97
2023-01-02T19:18:40.080Z,101396.97
2023-01-02T19:23:54.037Z,101401.19
2023-01-02T19:29:02.949Z,101406.00
2023-01-02T19:34:26.001Z,101421.38
2023-01-02T19:39:36.775Z,101423.41
2023-01-02T19:44:43.301Z,101428.53
2023-01-02T19:49:51.065Z,101439.88
2023-01-02T19:54:56.541Z,101453.50
2023-01-02T20:00:00.792Z,101458.81
2023-01-02T20:05:03.797Z,101462.09
2023-01-02T20:10:07.498Z,101479.31
2023-01-02T20:15:14.831Z,101483.97
2023-01-02T20:20:20.515Z,101495.31
2023-01-02T20:25:26.503Z,101501.25
2023-01-02T20:30:30.892Z,101505.03
2023-01-02T20:35:33.679Z,101516.19
2023-01-02T20:40:36.407Z,101523.03
2023-01-02T20:45:40.586Z,101541.38
2023-01-02T20:50:43.401Z,101549.19
2023-01-02T20:55:46.272Z,101560.28
2023-01-02T21:00:50.630Z,101583.28
2023-01-02T21:05:54.063Z,101590.81
2023-01-02T21:10:56.886Z,101603.09
2023-01-02T21:16:01.197Z,101609.88
2023-01-02T21:21:21.132Z,101618.78
2023-01-02T21:26:24.559Z,101614.06
2023-01-02T21:31:34.427Z,101622.06
2023-01-02T21:36:38.224Z,101626.97
2023-01-02T21:42:19.376Z,101632.72
2023-01-02T21:47:24.625Z,101638.16
2023-01-02T21:52:29.968Z,101646.34
2023-01-02T21:58:11.124Z,101651.25
2023-01-02T22:02:59.417Z,101662.78
2023-01-02T22:08:03.825Z,101680.50
2023-01-02T22:13:06.711Z,101685.47
2023-01-02T22:18:10.917Z,101695.13
2023-01-02T22:23:14.116Z,101708.44
2023-01-02T22:28:17.068Z,101709.31
2023-01-02T22:33:21.423Z,101713.91
2023-01-02T22:38:24.194Z,101719.03
2023-01-02T22:43:27.767Z,101729.13
2023-01-02T22:48:35.129Z,101743.59
2023-01-02T22:53:39.748Z,101760.66
2023-01-02T22:58:42.846Z,101765.47
2023-01-02T23:03:48.328Z,101775.25
2023-01-02T23:08:54.952Z,101784.09
2023-01-02T23:13:58.419Z,101781.84
2023-01-02T23:19:18.805Z,101794.56
2023-01-02T23:24:24.949Z,101796.75
2023-01-02T23:29:28.806Z,101798.19
2023-01-02T23:34:33.015Z,101808.38
2023-01-02T23:39:36.215Z,101815.63
2023-01-02T23:44:39.531Z,101811.81
2023-01-02T23:49:43.742Z,101810.00
2023-01-02T23:54:46.538Z,101811.81
2023-01-02T23:59:49.392Z,101814.88
